Dongfang, China
Current Conditions -  °F | °C
As of 3:00 PM on Tuesday 21 Oct 2014 (Local Time) from ZJSY Reporting Station
Scattered Clouds Scattered Clouds  
Wind Chill: 84°   Ceiling: Unl
Heat Index: 94°   Visibility: 6mi
Dew Point: 77°   Wind: 4mph
Humidity: 79%   Direction: 160°SSE
Pressure: 29.91"   Gusts: NA
Location:  19.1°N, 108.62°E
Report Text: ZJSY 210700Z 16002MPS 110V230 9999 SCT020 FEW030CBSCT05029/25 Q1013 RETS NOSIG
Loading
Personal Weather Stations






























Interactive Weather Map
Tropical Storm Tracking
New forecast layout! Learn more

10-Day Weather Forecast

Advertisements
Track Severe Weather on mobile